Letzte 24h
Datum & Zeit Temp. Luft-
feuchte
Wind Nieder-
schlag
Luftdruck Tendenz
IN OUT IN OUT Richtung Min. Max.
2019.09.17 07:59 21.4 °C 18.0 °C 59% 75% WSW 252 ° 8 km/h 18 km/h 0.0 mm 1023.30 hPa langsam steigend
08:59 21.4 °C 17.9 °C 58% 74% WNW 302 ° 6 km/h 15 km/h 0.0 mm 1023.60 hPa langsam steigend
09:59 21.5 °C 17.8 °C 58% 76% NW 310 ° 7 km/h 16 km/h 0.0 mm 1023.70 hPa langsam steigend
10:59 21.1 °C 16.8 °C 59% 82% NNW 342 ° 6 km/h 12 km/h 0.0 mm 1023.80 hPa langsam steigend
11:59 21.1 °C 15.3 °C 58% 87% N 10 ° 9 km/h 16 km/h 0.0 mm 1023.70 hPa langsam steigend
12:59 21.0 °C 14.7 °C 56% 85% NNO 19 ° 5 km/h 11 km/h 0.0 mm 1023.70 hPa gleichbleibend
13:59 20.8 °C 14.6 °C 56% 85% NO 43 ° 2 km/h 6 km/h 0.0 mm 1023.10 hPa langsam fallend
14:59 20.7 °C 14.7 °C 56% 87% O 82 ° 1 km/h 5 km/h 0.0 mm 1022.60 hPa langsam fallend
15:59 20.6 °C 16.7 °C 57% 81% S 180 ° 0 km/h 4 km/h 0.0 mm 1022.10 hPa fallend
16:59 20.8 °C 17.5 °C 58% 79% O 90 ° 0 km/h 4 km/h 0.0 mm 1021.60 hPa langsam fallend
17:59 21.1 °C 20.3 °C 58% 73% S 180 ° 0 km/h 3 km/h 0.0 mm 1021.10 hPa langsam fallend
18:59 21.1 °C 18.3 °C 58% 73% SW 235 ° 8 km/h 21 km/h 0.0 mm 1021.50 hPa langsam fallend
19:59 20.9 °C 17.5 °C 59% 71% SW 227 ° 13 km/h 23 km/h 0.0 mm 1022.10 hPa langsam steigend
20:59 20.5 °C 16.6 °C 59% 75% WSW 247 ° 14 km/h 22 km/h 0.0 mm 1022.60 hPa langsam steigend
21:59 20.2 °C 16.3 °C 58% 76% SW 227 ° 15 km/h 28 km/h 0.0 mm 1023.30 hPa steigend
22:59 19.9 °C 15.8 °C 60% 78% SW 226 ° 18 km/h 30 km/h 0.0 mm 1023.50 hPa langsam steigend
23:59 19.7 °C 15.4 °C 60% 80% SW 227 ° 16 km/h 27 km/h 0.0 mm 1023.90 hPa langsam steigend
2019.09.18 00:59 19.5 °C 15.3 °C 60% 76% SW 235 ° 15 km/h 27 km/h 0.0 mm 1024.40 hPa langsam steigend
01:59 19.3 °C 14.9 °C 58% 72% WSW 246 ° 13 km/h 27 km/h 0.0 mm 1025.20 hPa steigend
02:59 19.0 °C 13.5 °C 55% 66% WNW 291 ° 9 km/h 21 km/h 0.0 mm 1025.50 hPa steigend
03:59 18.6 °C 12.5 °C 54% 58% WNW 293 ° 9 km/h 26 km/h 0.0 mm 1026.10 hPa steigend
04:59 18.1 °C 11.5 °C 52% 60% NW 311 ° 8 km/h 27 km/h 0.0 mm 1026.90 hPa steigend
05:59 17.8 °C 11.0 °C 50% 64% W 279 ° 8 km/h 19 km/h 0.0 mm 1027.80 hPa steigend
06:59 17.4 °C 11.0 °C 50% 66% W 269 ° 8 km/h 21 km/h 0.0 mm 1028.20 hPa steigend

 

Verlauf: letzte 24h
WIND   Windrose
(Klicke ins Bild, um den Hintergrund abzuschalten)
WIND   Windverkauf 2.5h
TEMP   Temperatur 2.5h
Druck   Luftdruck 2.5h
Regen   Luftdruck 2.5h